createdAt,value
2023-02-24T00:03:30.961Z,62.58
2023-02-24T00:08:32.336Z,63.24
2023-02-24T00:13:35.343Z,63.15
2023-02-24T00:18:36.702Z,63.31
2023-02-24T00:23:38.346Z,62.91
2023-02-24T00:28:40.487Z,63.46
2023-02-24T00:33:44.253Z,63.71
2023-02-24T00:38:47.115Z,63.82
2023-02-24T00:43:50.179Z,64.44
2023-02-24T00:48:56.459Z,64.16
2023-02-24T00:53:57.994Z,64.06
2023-02-24T00:59:00.474Z,64.39
2023-02-24T01:04:08.043Z,64.37
2023-02-24T01:09:14.629Z,64.80
2023-02-24T01:14:19.357Z,64.52
2023-02-24T01:19:23.998Z,64.10
2023-02-24T01:24:25.968Z,63.94
2023-02-24T01:29:27.405Z,63.99
2023-02-24T01:34:28.733Z,64.40
2023-02-24T01:39:30.228Z,64.18
2023-02-24T01:44:32.738Z,64.66
2023-02-24T01:49:37.952Z,65.11
2023-02-24T01:54:46.045Z,65.53
2023-02-24T01:59:51.052Z,65.48
2023-02-24T02:05:01.809Z,65.51
2023-02-24T02:10:03.976Z,65.46
2023-02-24T02:15:07.582Z,65.35
2023-02-24T02:20:36.682Z,65.46
2023-02-24T02:26:02.795Z,65.48
2023-02-24T02:31:41.122Z,64.83
2023-02-24T02:36:54.730Z,64.87
2023-02-24T02:42:07.019Z,64.11
2023-02-24T02:47:20.251Z,63.60
2023-02-24T02:52:31.794Z,63.25
2023-02-24T02:57:38.003Z,63.25
2023-02-24T03:02:45.351Z,63.00
2023-02-24T03:07:54.537Z,63.11
2023-02-24T03:12:59.546Z,63.13
2023-02-24T03:18:10.134Z,63.09
2023-02-24T03:23:16.707Z,62.95
2023-02-24T03:28:29.160Z,64.34
2023-02-24T03:33:49.293Z,64.05
2023-02-24T03:38:50.616Z,63.69
2023-02-24T03:43:52.106Z,63.58
2023-02-24T03:49:02.854Z,63.49
2023-02-24T03:54:42.782Z,63.16
2023-02-24T04:00:22.757Z,64.32
2023-02-24T04:05:27.483Z,64.25
2023-02-24T04:10:39.317Z,64.63
2023-02-24T04:15:48.467Z,64.57
2023-02-24T04:20:52.906Z,63.98
2023-02-24T04:25:57.868Z,63.53
2023-02-24T04:31:09.944Z,63.49
2023-02-24T04:36:12.791Z,63.53
2023-02-24T04:41:21.189Z,62.94
2023-02-24T04:46:23.278Z,62.74
2023-02-24T04:51:24.760Z,62.53
2023-02-24T04:56:26.073Z,62.05
2023-02-24T05:01:27.387Z,61.88
2023-02-24T05:06:28.788Z,62.65
2023-02-24T05:11:34.733Z,62.41
2023-02-24T05:16:37.629Z,62.79
2023-02-24T05:21:38.985Z,62.93
2023-02-24T05:26:43.378Z,62.81
2023-02-24T05:31:45.629Z,63.21
2023-02-24T05:36:49.045Z,63.21
2023-02-24T05:41:50.918Z,63.30
2023-02-24T05:47:00.767Z,63.19
2023-02-24T05:52:08.663Z,63.51
2023-02-24T05:57:16.939Z,63.11
2023-02-24T06:02:27.248Z,63.12
2023-02-24T06:07:34.389Z,63.43
2023-02-24T06:12:35.997Z,64.02
2023-02-24T06:17:37.626Z,63.53
2023-02-24T06:22:42.271Z,63.93
2023-02-24T06:27:43.746Z,63.21
2023-02-24T06:32:45.207Z,63.38
2023-02-24T06:37:47.214Z,63.21
2023-02-24T06:42:50.470Z,62.39
2023-02-24T06:47:52.208Z,62.34
2023-02-24T06:53:00.607Z,62.14
2023-02-24T06:58:04.795Z,62.52
2023-02-24T07:03:15.417Z,62.02
2023-02-24T07:08:19.036Z,61.75
2023-02-24T07:13:20.433Z,61.86
2023-02-24T07:18:22.875Z,61.82
2023-02-24T07:23:24.310Z,61.58
2023-02-24T07:28:25.646Z,61.46
2023-02-24T07:33:27.931Z,61.55
2023-02-24T07:38:29.350Z,61.40
2023-02-24T07:43:30.733Z,60.65
2023-02-24T07:48:32.031Z,61.02
2023-02-24T07:53:33.498Z,61.19
2023-02-24T07:58:34.821Z,60.79
2023-02-24T08:03:41.137Z,60.53
2023-02-24T08:08:58.145Z,60.31
2023-02-24T08:14:02.486Z,60.28
2023-02-24T08:19:03.911Z,59.66
2023-02-24T08:24:05.943Z,59.40
2023-02-24T08:29:07.356Z,59.44
2023-02-24T08:34:08.768Z,58.90
2023-02-24T08:39:10.149Z,58.53
2023-02-24T08:44:12.785Z,58.50
2023-02-24T08:49:16.949Z,58.59
2023-02-24T08:54:27.023Z,58.49
2023-02-24T08:59:37.758Z,58.37
2023-02-24T09:04:39.719Z,57.52
2023-02-24T09:09:42.450Z,56.69
2023-02-24T09:14:43.870Z,56.47
2023-02-24T09:19:47.980Z,55.94
2023-02-24T09:24:51.032Z,55.14
2023-02-24T09:29:52.471Z,54.66
2023-02-24T09:34:53.910Z,54.42
2023-02-24T09:39:57.873Z,54.43
2023-02-24T09:45:11.388Z,54.25
2023-02-24T09:50:48.276Z,53.82
2023-02-24T09:56:05.283Z,54.25
2023-02-24T10:01:45.592Z,53.88
2023-02-24T10:07:02.938Z,53.85
2023-02-24T10:12:23.970Z,53.45
2023-02-24T10:17:39.975Z,53.81
2023-02-24T10:22:54.056Z,53.61
2023-02-24T10:28:20.740Z,54.33
2023-02-24T10:33:30.209Z,53.86
2023-02-24T10:38:33.952Z,53.33
2023-02-24T10:43:45.332Z,53.00
2023-02-24T10:49:01.670Z,52.49
2023-02-24T10:54:31.302Z,52.50
2023-02-24T10:59:58.256Z,52.08
2023-02-24T11:05:38.681Z,52.33
2023-02-24T11:10:53.132Z,50.92
2023-02-24T11:16:14.586Z,50.58
2023-02-24T11:21:16.308Z,50.10
2023-02-24T11:26:23.472Z,50.25
2023-02-24T11:31:42.695Z,49.81
2023-02-24T11:37:16.901Z,49.74
2023-02-24T11:42:31.399Z,49.59
2023-02-24T11:47:47.796Z,49.61
2023-02-24T11:52:51.845Z,49.36
2023-02-24T11:57:59.179Z,49.55
2023-02-24T12:03:18.182Z,48.98
2023-02-24T12:08:31.883Z,48.95
2023-02-24T12:13:39.742Z,48.68
2023-02-24T12:18:47.919Z,48.92
2023-02-24T12:23:53.557Z,48.89
2023-02-24T12:29:48.491Z,48.16
2023-02-24T12:35:06.772Z,48.98
2023-02-24T12:40:27.348Z,48.53
2023-02-24T12:45:48.091Z,48.78
2023-02-24T12:51:09.733Z,48.92
2023-02-24T12:56:19.945Z,48.91
2023-02-24T13:01:56.775Z,49.11
2023-02-24T13:07:36.949Z,49.77
2023-02-24T13:12:47.330Z,49.80
2023-02-24T13:17:53.504Z,50.24
2023-02-24T13:22:55.807Z,50.10
2023-02-24T13:28:01.195Z,50.34
2023-02-24T13:33:21.693Z,50.23
2023-02-24T13:38:35.346Z,50.79
2023-02-24T13:43:36.800Z,50.62
2023-02-24T13:49:07.506Z,50.93
2023-02-24T13:54:39.835Z,50.95
2023-02-24T13:59:53.048Z,50.60
2023-02-24T14:04:57.680Z,51.37
2023-02-24T14:10:05.396Z,51.53
2023-02-24T14:15:10.571Z,51.65
2023-02-24T14:20:18.908Z,51.55
2023-02-24T14:25:24.712Z,51.63
2023-02-24T14:30:31.698Z,52.06
2023-02-24T14:35:34.789Z,52.30
2023-02-24T14:40:36.149Z,51.99
2023-02-24T14:45:49.009Z,52.21
2023-02-24T14:50:50.710Z,52.29
2023-02-24T14:55:56.425Z,52.57
2023-02-24T15:01:05.737Z,52.38
2023-02-24T15:06:15.436Z,52.45
2023-02-24T15:11:16.705Z,51.39
2023-02-24T15:16:25.569Z,51.10
2023-02-24T15:21:54.026Z,50.83
2023-02-24T15:27:00.967Z,50.98
2023-02-24T15:32:06.798Z,51.12
2023-02-24T15:37:26.331Z,51.23
2023-02-24T15:42:34.484Z,51.35
2023-02-24T15:47:46.054Z,51.36
2023-02-24T15:52:47.889Z,51.45
2023-02-24T15:57:58.371Z,51.92
2023-02-24T17:01:25.303Z,63.36
2023-02-24T17:06:27.552Z,63.98
2023-02-24T17:11:29.187Z,65.25
2023-02-24T17:16:30.608Z,65.08
2023-02-24T17:21:31.933Z,64.81
2023-02-24T17:26:33.274Z,65.82
2023-02-24T17:31:34.828Z,65.84
2023-02-24T17:36:36.248Z,66.55
2023-02-24T17:41:37.605Z,66.42
2023-02-24T17:46:39.098Z,67.14
2023-02-24T17:51:40.534Z,67.27
2023-02-24T17:56:41.933Z,67.48
2023-02-24T18:01:43.270Z,68.08
2023-02-24T18:06:44.970Z,67.85
2023-02-24T18:11:47.673Z,68.41
2023-02-24T18:16:49.065Z,68.65
2023-02-24T18:21:50.410Z,68.02
2023-02-24T18:26:51.749Z,67.91
2023-02-24T18:31:53.268Z,67.93
2023-02-24T18:36:54.896Z,68.81
2023-02-24T18:41:58.275Z,67.92
2023-02-24T18:47:00.921Z,68.87
2023-02-24T18:52:02.455Z,68.84
2023-02-24T18:57:03.943Z,68.57
2023-02-24T19:02:05.344Z,68.18
2023-02-24T19:07:07.565Z,68.13
2023-02-24T19:12:09.045Z,68.04
2023-02-24T19:17:10.427Z,67.37
2023-02-24T19:22:11.938Z,66.89
2023-02-24T19:27:13.952Z,67.21
2023-02-24T19:32:15.447Z,66.26
2023-02-24T19:37:16.867Z,66.29
2023-02-24T19:42:18.244Z,66.27
2023-02-24T19:47:19.690Z,66.01
2023-02-24T19:52:21.086Z,66.55
2023-02-24T19:57:22.478Z,66.20
2023-02-24T20:02:24.282Z,66.89
2023-02-24T20:07:25.697Z,66.44
2023-02-24T20:12:27.506Z,66.27
2023-02-24T20:17:28.946Z,66.50
2023-02-24T20:22:30.449Z,65.99
2023-02-24T20:27:32.558Z,65.11
2023-02-24T20:32:34.086Z,65.29
2023-02-24T20:37:36.080Z,65.02
2023-02-24T20:42:37.424Z,65.33
2023-02-24T20:47:38.873Z,64.66
2023-02-24T20:52:40.279Z,64.20
2023-02-24T20:57:41.648Z,63.82
2023-02-24T21:02:43.586Z,64.50
2023-02-24T21:07:45.313Z,64.03
2023-02-24T21:12:47.250Z,64.64
2023-02-24T21:17:48.615Z,64.50
2023-02-24T21:22:49.964Z,64.56
2023-02-24T21:27:51.338Z,64.51
2023-02-24T21:32:52.705Z,65.04
2023-02-24T21:37:54.052Z,64.74
2023-02-24T21:42:55.401Z,65.11
2023-02-24T21:47:56.797Z,65.79
2023-02-24T21:52:58.120Z,66.17
2023-02-24T21:57:59.523Z,65.89
2023-02-24T22:03:00.934Z,65.62
2023-02-24T22:08:02.447Z,65.78
2023-02-24T22:13:03.805Z,64.97
2023-02-24T22:18:05.228Z,64.91
2023-02-24T22:23:06.537Z,64.72
2023-02-24T22:28:07.950Z,64.85
2023-02-24T22:33:09.441Z,64.73
2023-02-24T22:38:10.864Z,64.55
2023-02-24T22:43:12.234Z,64.36
2023-02-24T22:48:14.325Z,63.42
2023-02-24T22:53:16.367Z,64.18
2023-02-24T22:58:19.721Z,64.04
2023-02-24T23:03:24.600Z,64.06
2023-02-24T23:08:31.009Z,64.03
2023-02-24T23:13:35.319Z,63.95
2023-02-24T23:18:37.724Z,63.71
2023-02-24T23:23:39.065Z,63.41
2023-02-24T23:28:40.816Z,62.92
2023-02-24T23:33:42.159Z,62.94
2023-02-24T23:38:44.796Z,62.30
2023-02-24T23:43:46.216Z,62.07
2023-02-24T23:48:52.387Z,62.47
2023-02-24T23:53:53.723Z,61.82
2023-02-24T23:58:58.652Z,62.09
